createdAt,value
2019-02-25T00:00:30.677Z,6.28
2019-02-25T00:01:30.671Z,6.13
2019-02-25T00:02:30.665Z,6.29
2019-02-25T00:03:30.675Z,6.01
2019-02-25T00:04:30.627Z,5.96
2019-02-25T00:05:30.619Z,5.92
2019-02-25T00:06:30.615Z,5.93
2019-02-25T00:07:30.603Z,5.96
2019-02-25T00:08:30.637Z,5.98
2019-02-25T00:09:30.575Z,5.95
2019-02-25T00:10:30.561Z,5.92
2019-02-25T00:11:30.553Z,5.88
2019-02-25T00:12:30.541Z,5.91
2019-02-25T00:13:30.560Z,5.88
2019-02-25T00:14:30.521Z,5.77
2019-02-25T00:15:30.525Z,5.60
2019-02-25T00:16:30.492Z,5.46
2019-02-25T00:17:30.483Z,5.35
2019-02-25T00:18:30.481Z,5.23
2019-02-25T00:19:30.499Z,5.27
2019-02-25T00:20:30.450Z,5.16
2019-02-25T00:21:30.439Z,5.25
2019-02-25T00:22:30.425Z,5.31
2019-02-25T00:23:30.418Z,5.41
2019-02-25T00:24:30.429Z,5.63
2019-02-25T00:25:30.391Z,5.55
2019-02-25T00:26:30.388Z,5.63
2019-02-25T00:27:30.403Z,5.67
2019-02-25T00:28:30.359Z,5.78
2019-02-25T00:29:30.371Z,5.81
2019-02-25T00:30:30.352Z,5.78
2019-02-25T00:31:30.339Z,5.81
2019-02-25T00:32:30.331Z,5.81
2019-02-25T00:33:30.317Z,5.74
2019-02-25T00:34:30.329Z,5.75
2019-02-25T00:35:30.309Z,5.71
2019-02-25T00:36:30.291Z,5.56
2019-02-25T00:37:30.279Z,5.45
2019-02-25T00:38:30.269Z,5.45
2019-02-25T00:39:30.290Z,5.27
2019-02-25T00:40:30.254Z,5.31
2019-02-25T00:41:30.239Z,5.31
2019-02-25T00:42:30.237Z,5.14
2019-02-25T00:43:30.219Z,5.12
2019-02-25T00:44:30.233Z,5.04
2019-02-25T00:45:30.198Z,5.22
2019-02-25T00:46:30.180Z,5.27
2019-02-25T00:47:30.176Z,5.19
2019-02-25T00:48:30.169Z,5.35
2019-02-25T00:49:30.192Z,5.34
2019-02-25T00:50:30.145Z,5.49
2019-02-25T00:51:30.134Z,5.52
2019-02-25T00:52:30.143Z,5.49
2019-02-25T00:53:30.123Z,5.46
2019-02-25T00:54:30.127Z,5.34
2019-02-25T00:55:30.085Z,5.19
2019-02-25T00:56:30.072Z,5.16
2019-02-25T00:57:30.060Z,5.30
2019-02-25T00:58:30.050Z,5.19
2019-02-25T00:59:30.069Z,5.10
2019-02-25T01:00:30.031Z,5.05
2019-02-25T01:01:30.019Z,4.88
2019-02-25T01:02:30.021Z,4.80
2019-02-25T01:03:30.012Z,4.76
2019-02-25T01:04:30.056Z,4.83
2019-02-25T01:05:30.001Z,4.94
2019-02-25T01:06:29.980Z,4.99
2019-02-25T01:07:29.968Z,5.12
2019-02-25T01:08:29.957Z,5.12
2019-02-25T01:09:29.977Z,5.16
2019-02-25T01:10:29.944Z,5.14
2019-02-25T01:11:29.929Z,5.07
2019-02-25T01:12:29.913Z,5.02
2019-02-25T01:13:29.905Z,4.99
2019-02-25T01:14:29.925Z,5.02
2019-02-25T01:15:29.880Z,5.13
2019-02-25T01:16:29.884Z,5.37
2019-02-25T01:17:29.862Z,5.55
2019-02-25T01:18:29.846Z,5.55
2019-02-25T01:19:29.860Z,5.56
2019-02-25T01:20:29.819Z,5.38
2019-02-25T01:21:29.816Z,5.56
2019-02-25T01:22:29.818Z,5.60
2019-02-25T01:23:29.801Z,5.68
2019-02-25T01:24:29.824Z,5.63
2019-02-25T01:25:29.788Z,5.53
2019-02-25T01:26:29.771Z,5.40
2019-02-25T01:27:29.759Z,5.30
2019-02-25T01:28:29.755Z,5.10
2019-02-25T01:29:29.761Z,4.99
2019-02-25T01:30:29.722Z,5.07
2019-02-25T01:31:29.724Z,4.99
2019-02-25T01:32:29.702Z,5.09
2019-02-25T01:33:29.699Z,5.09
2019-02-25T01:34:29.715Z,5.09
2019-02-25T01:35:29.687Z,4.96
2019-02-25T01:36:29.662Z,4.94
2019-02-25T01:37:29.659Z,4.77
2019-02-25T01:38:29.644Z,4.67
2019-02-25T01:39:29.660Z,4.69
2019-02-25T01:40:29.629Z,4.89
2019-02-25T01:41:29.612Z,4.99
2019-02-25T01:42:29.598Z,5.05
2019-02-25T01:43:29.594Z,5.12
2019-02-25T01:44:29.618Z,5.04
2019-02-25T01:45:29.570Z,4.94
2019-02-25T01:46:29.562Z,4.69
2019-02-25T01:47:29.550Z,4.62
2019-02-25T01:48:29.539Z,4.50
2019-02-25T01:49:29.552Z,4.40
2019-02-25T01:50:29.517Z,4.28
2019-02-25T01:51:29.507Z,4.14
2019-02-25T01:52:29.502Z,4.14
2019-02-25T01:53:29.487Z,3.94
2019-02-25T01:54:29.512Z,3.88
2019-02-25T01:55:29.487Z,3.97
2019-02-25T01:56:29.455Z,4.47
2019-02-25T01:57:29.447Z,4.65
2019-02-25T01:58:29.447Z,4.77
2019-02-25T01:59:29.461Z,5.01
2019-02-25T02:00:29.415Z,5.02
2019-02-25T02:01:29.402Z,5.13
2019-02-25T02:02:29.390Z,5.46
2019-02-25T02:03:29.384Z,5.86
2019-02-25T02:04:29.385Z,5.85
2019-02-25T02:05:29.400Z,6.10
2019-02-25T02:06:29.354Z,6.30
2019-02-25T02:07:29.340Z,6.33
2019-02-25T02:08:29.346Z,6.48
2019-02-25T02:09:29.316Z,6.41
2019-02-25T02:10:29.336Z,6.32
2019-02-25T02:11:29.291Z,6.11
2019-02-25T02:12:29.294Z,5.93
2019-02-25T02:13:29.276Z,5.92
2019-02-25T02:14:29.265Z,5.63
2019-02-25T02:15:29.288Z,5.40
2019-02-25T02:16:29.269Z,5.17
2019-02-25T02:17:29.239Z,4.96
2019-02-25T02:18:29.228Z,4.83
2019-02-25T02:19:29.213Z,4.59
2019-02-25T02:20:29.238Z,4.61
2019-02-25T02:21:29.194Z,4.79
2019-02-25T02:22:29.185Z,4.92
2019-02-25T02:23:29.162Z,4.88
2019-02-25T02:24:29.156Z,4.75
2019-02-25T02:25:29.176Z,4.64
2019-02-25T02:26:29.156Z,4.64
2019-02-25T02:27:29.164Z,4.61
2019-02-25T02:28:29.133Z,4.59
2019-02-25T02:29:29.107Z,4.55
2019-02-25T02:30:29.122Z,4.58
2019-02-25T02:31:29.083Z,4.51
2019-02-25T02:32:29.069Z,4.59
2019-02-25T02:33:29.060Z,4.76
2019-02-25T02:34:29.052Z,4.70
2019-02-25T02:35:29.062Z,4.61
2019-02-25T02:36:29.075Z,4.57
2019-02-25T02:37:29.026Z,4.42
2019-02-25T02:38:29.010Z,4.21
2019-02-25T02:39:28.997Z,4.10
2019-02-25T02:40:29.026Z,4.15
2019-02-25T02:41:28.972Z,4.36
2019-02-25T02:42:28.963Z,4.50
2019-02-25T02:43:28.951Z,4.54
2019-02-25T02:44:28.982Z,4.43
2019-02-25T02:45:28.955Z,4.42
2019-02-25T02:46:28.920Z,4.50
2019-02-25T02:47:28.911Z,4.46
2019-02-25T02:48:28.901Z,4.43
2019-02-25T02:49:28.907Z,4.34
2019-02-25T02:50:28.917Z,4.25
2019-02-25T02:51:28.880Z,4.50
2019-02-25T02:52:28.856Z,4.44
2019-02-25T02:53:28.852Z,4.70
2019-02-25T02:54:28.848Z,4.69
2019-02-25T02:55:28.891Z,4.80
2019-02-25T02:56:28.811Z,4.88
2019-02-25T02:57:28.826Z,4.69
2019-02-25T02:58:28.791Z,4.57
2019-02-25T02:59:28.791Z,4.43
2019-02-25T03:00:28.793Z,4.42
2019-02-25T03:01:28.783Z,4.44
2019-02-25T03:02:28.783Z,4.32
2019-02-25T03:03:28.759Z,4.28
2019-02-25T03:04:28.738Z,4.10
2019-02-25T03:05:28.744Z,4.21
2019-02-25T03:06:28.714Z,4.15
2019-02-25T03:07:28.718Z,4.15
2019-02-25T03:08:28.690Z,4.15
2019-02-25T03:09:28.679Z,4.24
2019-02-25T03:10:28.696Z,4.32
2019-02-25T03:11:28.667Z,4.29
2019-02-25T03:12:28.650Z,4.32
2019-02-25T03:13:28.640Z,4.39
2019-02-25T03:14:28.631Z,4.26
2019-02-25T03:15:28.653Z,4.25
2019-02-25T03:16:28.597Z,4.32
2019-02-25T03:17:28.600Z,4.24
2019-02-25T03:18:28.597Z,4.29
2019-02-25T03:19:28.574Z,4.25
2019-02-25T03:20:28.604Z,4.03
2019-02-25T03:21:28.550Z,3.96
2019-02-25T03:22:28.535Z,3.75
2019-02-25T03:23:28.539Z,3.76
2019-02-25T03:24:28.514Z,3.72
2019-02-25T03:25:28.538Z,3.68
2019-02-25T03:26:28.501Z,3.75
2019-02-25T03:27:28.485Z,3.67
2019-02-25T03:28:28.476Z,3.60
2019-02-25T03:29:28.470Z,3.54
2019-02-25T03:30:28.491Z,3.53
2019-02-25T03:31:28.439Z,3.43
2019-02-25T03:32:28.430Z,3.46
2019-02-25T03:33:28.424Z,3.39
2019-02-25T03:34:28.414Z,3.24
2019-02-25T03:35:28.427Z,3.23
2019-02-25T03:36:28.376Z,3.16
2019-02-25T03:37:28.368Z,3.10
2019-02-25T03:38:28.365Z,2.95
2019-02-25T03:39:28.359Z,2.97
2019-02-25T03:40:28.378Z,3.02
2019-02-25T03:41:28.342Z,2.97
2019-02-25T03:42:28.344Z,3.15
2019-02-25T03:43:28.319Z,3.39
2019-02-25T03:44:28.320Z,3.52
2019-02-25T03:45:28.344Z,3.67
2019-02-25T03:46:28.290Z,3.79
2019-02-25T03:47:28.283Z,3.83
2019-02-25T03:48:28.281Z,3.78
2019-02-25T03:49:28.255Z,3.71
2019-02-25T03:50:28.254Z,3.71
2019-02-25T03:51:28.279Z,3.53
2019-02-25T03:52:28.223Z,3.49
2019-02-25T03:53:28.222Z,3.36
2019-02-25T03:54:28.203Z,3.33
2019-02-25T03:55:28.718Z,3.24
2019-02-25T03:56:28.235Z,3.25
2019-02-25T03:57:28.169Z,3.33
2019-02-25T03:58:28.177Z,3.23
2019-02-25T03:59:28.159Z,3.24
2019-02-25T04:00:28.161Z,3.06
2019-02-25T04:01:28.170Z,2.97
2019-02-25T04:02:28.141Z,2.97
2019-02-25T04:03:28.119Z,2.89
2019-02-25T04:04:28.109Z,2.76
2019-02-25T04:05:28.113Z,2.61
2019-02-25T04:06:28.104Z,2.52
2019-02-25T04:07:28.060Z,2.52
2019-02-25T04:08:28.054Z,2.73
2019-02-25T04:09:28.046Z,2.74
2019-02-25T04:10:28.041Z,2.79
2019-02-25T04:11:28.046Z,2.84
2019-02-25T04:12:29.303Z,2.89
2019-02-25T04:13:28.004Z,2.98
2019-02-25T04:14:27.986Z,3.00
2019-02-25T04:15:27.977Z,3.06
2019-02-25T04:16:27.991Z,3.06
2019-02-25T04:17:27.971Z,3.10
2019-02-25T04:18:27.956Z,3.13
2019-02-25T04:19:27.942Z,3.13
2019-02-25T04:20:27.930Z,3.05
2019-02-25T04:21:27.956Z,2.87
2019-02-25T04:22:27.926Z,2.74
2019-02-25T04:23:27.912Z,2.69
2019-02-25T04:24:27.884Z,2.58
2019-02-25T04:25:27.874Z,2.53
2019-02-25T04:26:27.934Z,2.41
2019-02-25T04:27:27.875Z,2.30
2019-02-25T04:28:27.849Z,2.30
2019-02-25T04:29:27.849Z,2.34
2019-02-25T04:30:27.833Z,2.20
2019-02-25T04:31:27.869Z,2.15
2019-02-25T04:32:27.812Z,2.09
2019-02-25T04:33:27.801Z,1.91
2019-02-25T04:34:27.810Z,1.87
2019-02-25T04:35:27.794Z,1.73
2019-02-25T04:36:27.802Z,1.89
2019-02-25T04:37:27.769Z,2.30
2019-02-25T04:38:27.754Z,2.55
2019-02-25T04:39:27.739Z,2.67
2019-02-25T04:40:27.733Z,2.77
2019-02-25T04:41:27.746Z,2.87
2019-02-25T04:42:27.710Z,2.94
2019-02-25T04:43:27.694Z,2.88
2019-02-25T04:44:27.685Z,2.98
2019-02-25T04:45:27.676Z,2.79
2019-02-25T04:46:27.691Z,2.76
2019-02-25T04:47:27.661Z,2.61
2019-02-25T04:48:27.652Z,2.64
2019-02-25T04:49:27.631Z,2.64
2019-02-25T04:50:27.621Z,2.53
2019-02-25T04:51:27.633Z,2.34
2019-02-25T04:52:27.607Z,2.27
2019-02-25T04:53:27.604Z,2.28
2019-02-25T04:54:27.568Z,2.20
2019-02-25T04:55:27.577Z,2.22
2019-02-25T04:56:27.580Z,2.09
2019-02-25T04:57:27.546Z,2.01
2019-02-25T04:58:27.537Z,1.82
2019-02-25T04:59:27.520Z,1.94
2019-02-25T05:00:27.508Z,1.98
2019-02-25T05:01:27.582Z,1.98
2019-02-25T05:02:27.488Z,2.10
2019-02-25T05:03:27.483Z,2.23
2019-02-25T05:04:27.509Z,2.23
2019-02-25T05:05:27.462Z,2.38
2019-02-25T05:06:27.491Z,2.26
2019-02-25T05:07:27.431Z,2.26
2019-02-25T05:08:27.429Z,2.35
2019-02-25T05:09:27.427Z,2.38
2019-02-25T05:10:27.415Z,2.48
2019-02-25T05:11:27.440Z,2.48
2019-02-25T05:12:27.403Z,2.45
2019-02-25T05:13:27.374Z,2.41
2019-02-25T05:14:27.360Z,2.44
2019-02-25T05:15:27.364Z,2.34
2019-02-25T05:16:27.380Z,2.41
2019-02-25T05:17:27.331Z,2.40
2019-02-25T05:18:27.316Z,2.27
2019-02-25T05:19:27.302Z,2.23
2019-02-25T05:20:27.299Z,2.37
2019-02-25T05:21:27.312Z,2.33
2019-02-25T05:22:27.293Z,2.55
2019-02-25T05:23:27.267Z,2.71
2019-02-25T05:24:27.259Z,2.81
2019-02-25T05:25:27.262Z,3.02
2019-02-25T05:26:27.291Z,3.27
2019-02-25T05:27:27.239Z,3.31
2019-02-25T05:28:27.220Z,3.44
2019-02-25T05:29:27.201Z,3.57
2019-02-25T05:30:27.210Z,3.64
2019-02-25T05:31:27.184Z,3.64
2019-02-25T05:32:27.195Z,3.75
2019-02-25T05:33:27.177Z,3.78
2019-02-25T05:34:27.163Z,3.70
2019-02-25T05:35:27.163Z,3.82
2019-02-25T05:36:27.128Z,3.75
2019-02-25T05:37:27.154Z,3.75
2019-02-25T05:38:27.114Z,3.75
2019-02-25T05:39:27.119Z,3.75
2019-02-25T05:40:27.101Z,3.76
2019-02-25T05:41:27.080Z,3.72
2019-02-25T05:42:27.124Z,3.83
2019-02-25T05:43:27.160Z,3.76
2019-02-25T05:44:27.062Z,3.76
2019-02-25T05:45:27.067Z,3.58
2019-02-25T05:46:27.068Z,3.42
2019-02-25T05:47:27.071Z,3.42
2019-02-25T05:48:27.022Z,3.33
2019-02-25T05:49:27.004Z,3.44
2019-02-25T05:50:27.005Z,3.43
2019-02-25T05:51:27.001Z,3.61
2019-02-25T05:52:27.011Z,3.68
2019-02-25T05:53:26.985Z,3.68
2019-02-25T05:54:26.952Z,3.79
2019-02-25T05:55:26.935Z,3.70
2019-02-25T05:56:26.926Z,3.75
2019-02-25T05:57:26.937Z,3.61
2019-02-25T05:58:26.897Z,3.46
2019-02-25T05:59:26.897Z,3.30
2019-02-25T06:00:26.904Z,3.25
2019-02-25T06:01:26.867Z,3.15
2019-02-25T06:02:26.884Z,2.88
2019-02-25T06:03:26.868Z,2.82
2019-02-25T06:04:26.840Z,2.79
2019-02-25T06:05:26.844Z,2.74
2019-02-25T06:06:26.835Z,2.66
2019-02-25T06:07:26.850Z,2.48
2019-02-25T06:08:26.818Z,2.41
2019-02-25T06:09:26.808Z,2.59
2019-02-25T06:10:26.777Z,2.76
2019-02-25T06:11:26.813Z,2.91
2019-02-25T06:12:26.810Z,3.02
2019-02-25T06:13:26.753Z,2.87
2019-02-25T06:14:26.755Z,2.85
2019-02-25T06:15:26.735Z,2.91
2019-02-25T06:16:26.904Z,2.89
2019-02-25T06:17:26.751Z,2.74
2019-02-25T06:18:26.815Z,2.61
2019-02-25T06:19:26.691Z,2.73
2019-02-25T06:20:26.695Z,2.61
2019-02-25T06:21:26.679Z,2.58
2019-02-25T06:22:26.699Z,2.58
2019-02-25T06:23:26.637Z,2.49
2019-02-25T06:24:26.637Z,2.73
2019-02-25T06:25:26.630Z,2.91
2019-02-25T06:26:26.621Z,3.24
2019-02-25T06:27:30.591Z,3.42
2019-02-25T06:28:26.610Z,3.57
2019-02-25T06:29:26.581Z,3.57
2019-02-25T06:30:26.570Z,3.57
2019-02-25T06:31:26.561Z,3.57
2019-02-25T06:32:26.571Z,3.54
2019-02-25T06:33:26.543Z,3.60
2019-02-25T06:34:26.525Z,3.64
2019-02-25T06:35:26.511Z,3.83
2019-02-25T06:36:26.507Z,3.94
2019-02-25T06:37:26.517Z,4.10
2019-02-25T06:38:26.485Z,4.22
2019-02-25T06:39:26.484Z,4.43
2019-02-25T06:40:26.456Z,4.42
2019-02-25T06:41:26.452Z,4.55
2019-02-25T06:42:26.463Z,4.43
2019-02-25T06:43:26.540Z,4.47
2019-02-25T06:44:26.425Z,4.47
2019-02-25T06:45:26.420Z,4.36
2019-02-25T06:46:26.400Z,4.40
2019-02-25T06:47:35.647Z,4.42
2019-02-25T06:48:26.369Z,4.36
2019-02-25T06:49:26.366Z,4.25
2019-02-25T06:50:26.356Z,4.32
2019-02-25T06:51:26.336Z,4.25
2019-02-25T06:52:26.359Z,4.25
2019-02-25T06:53:26.323Z,4.26
2019-02-25T06:54:26.319Z,4.33
2019-02-25T06:55:26.302Z,4.32
2019-02-25T06:56:26.292Z,4.24
2019-02-25T06:57:26.304Z,4.26
2019-02-25T06:58:26.259Z,4.29
2019-02-25T06:59:26.257Z,4.25
2019-02-25T07:00:26.256Z,4.29
2019-02-25T07:01:26.232Z,4.37
2019-02-25T07:02:26.257Z,4.50
2019-02-25T07:03:26.211Z,4.46
2019-02-25T07:04:26.201Z,4.42
2019-02-25T07:05:26.194Z,4.55
2019-02-25T07:06:26.184Z,4.44
2019-02-25T07:07:26.208Z,4.43
2019-02-25T07:08:26.162Z,4.50
2019-02-25T07:09:26.150Z,4.37
2019-02-25T07:10:26.136Z,4.36
2019-02-25T07:11:26.140Z,4.33
2019-02-25T07:12:26.113Z,4.46
2019-02-25T07:13:26.133Z,4.43
2019-02-25T07:14:26.094Z,4.47
2019-02-25T07:15:26.086Z,4.42
2019-02-25T07:16:26.076Z,4.47
2019-02-25T07:17:26.067Z,4.43
2019-02-25T07:18:26.078Z,4.39
2019-02-25T07:19:26.045Z,4.25
2019-02-25T07:20:26.037Z,4.19
2019-02-25T07:21:26.021Z,4.22
2019-02-25T07:22:26.008Z,4.16
2019-02-25T07:23:26.063Z,4.03
2019-02-25T07:24:25.993Z,4.00
2019-02-25T07:25:25.980Z,4.00
2019-02-25T07:26:27.587Z,3.98
2019-02-25T07:27:25.964Z,3.96
2019-02-25T07:28:26.058Z,3.97
2019-02-25T07:29:25.946Z,4.03
2019-02-25T07:30:25.947Z,4.12
2019-02-25T07:31:25.909Z,4.25
2019-02-25T07:32:25.898Z,4.65
2019-02-25T07:33:25.917Z,5.20
2019-02-25T07:34:25.889Z,6.11
2019-02-25T07:35:25.965Z,7.26
2019-02-25T07:36:25.861Z,8.20
2019-02-25T07:37:25.847Z,9.01
2019-02-25T07:38:25.870Z,9.66
2019-02-25T07:39:25.826Z,10.22
2019-02-25T07:40:25.826Z,10.77
2019-02-25T07:41:25.827Z,11.03
2019-02-25T07:42:25.810Z,11.43
2019-02-25T07:43:25.808Z,11.65
2019-02-25T07:44:25.768Z,12.19
2019-02-25T07:45:25.763Z,12.64
2019-02-25T07:46:25.762Z,13.09
2019-02-25T07:47:25.744Z,13.47
2019-02-25T07:48:25.809Z,13.79
2019-02-25T07:49:25.727Z,13.74
2019-02-25T07:50:25.712Z,13.52
2019-02-25T07:51:25.715Z,13.02
2019-02-25T07:52:25.699Z,12.93
2019-02-25T07:53:25.717Z,12.63
2019-02-25T07:54:25.683Z,12.33
2019-02-25T07:55:25.666Z,12.48
2019-02-25T07:56:25.660Z,13.29
2019-02-25T07:57:25.656Z,13.99
2019-02-25T07:58:25.668Z,14.61
2019-02-25T07:59:25.640Z,15.02
2019-02-25T08:00:25.622Z,15.48
2019-02-25T08:01:25.607Z,15.36
2019-02-25T08:02:25.593Z,15.49
2019-02-25T08:03:25.608Z,15.96
2019-02-25T08:04:25.590Z,16.23
2019-02-25T08:05:25.563Z,16.70
2019-02-25T08:06:25.565Z,17.08
2019-02-25T08:07:25.542Z,16.35
2019-02-25T08:08:25.573Z,15.23
2019-02-25T08:09:25.544Z,14.29
2019-02-25T08:10:25.518Z,14.32
2019-02-25T08:11:25.516Z,14.01
2019-02-25T08:12:25.499Z,13.81
2019-02-25T08:13:25.510Z,13.59
2019-02-25T08:14:25.502Z,14.42
2019-02-25T08:15:25.471Z,15.46
2019-02-25T08:16:25.451Z,16.65
2019-02-25T08:17:25.443Z,17.17
2019-02-25T08:18:25.456Z,17.53
2019-02-25T08:19:25.419Z,17.85
2019-02-25T08:20:25.417Z,17.69
2019-02-25T08:21:25.404Z,17.11
2019-02-25T08:22:25.394Z,16.77
2019-02-25T08:23:25.412Z,16.53
2019-02-25T08:24:30.571Z,15.93
2019-02-25T08:25:26.356Z,15.46
2019-02-25T08:26:25.356Z,14.42
2019-02-25T08:27:25.339Z,14.14
2019-02-25T08:28:25.358Z,14.54
2019-02-25T08:29:25.316Z,14.90
2019-02-25T08:30:25.317Z,15.56
2019-02-25T08:31:25.289Z,15.96
2019-02-25T08:32:25.273Z,16.89
2019-02-25T08:33:25.292Z,17.35
2019-02-25T08:34:25.254Z,17.87
2019-02-25T08:35:25.251Z,17.36
2019-02-25T08:36:25.234Z,17.13
2019-02-25T08:37:25.220Z,17.07
2019-02-25T08:38:25.252Z,17.36
2019-02-25T08:39:25.188Z,17.57
2019-02-25T08:40:25.184Z,17.00
2019-02-25T08:41:25.174Z,16.44
2019-02-25T08:42:25.166Z,16.31
2019-02-25T08:43:25.183Z,16.31
2019-02-25T08:44:25.146Z,15.86
2019-02-25T08:45:25.128Z,15.67
2019-02-25T08:46:25.122Z,15.54
2019-02-25T08:47:25.114Z,15.70
2019-02-25T08:48:25.137Z,16.44
2019-02-25T08:49:25.092Z,17.03
2019-02-25T08:50:25.085Z,16.83
2019-02-25T08:51:25.062Z,17.06
2019-02-25T08:52:25.057Z,17.13
2019-02-25T08:53:25.052Z,17.14
2019-02-25T08:54:25.060Z,16.92
2019-02-25T08:55:25.024Z,16.53
2019-02-25T08:56:25.022Z,16.41
2019-02-25T08:57:25.002Z,17.26
2019-02-25T08:58:24.996Z,17.57
2019-02-25T08:59:25.005Z,18.83
2019-02-25T09:00:24.969Z,18.90
2019-02-25T09:01:24.963Z,19.36
2019-02-25T09:02:24.953Z,19.57
2019-02-25T09:03:24.937Z,20.13
2019-02-25T09:04:24.956Z,19.54
2019-02-25T09:05:24.912Z,18.87
2019-02-25T09:06:24.910Z,19.42
2019-02-25T09:07:24.894Z,19.98
2019-02-25T09:08:24.896Z,20.13
2019-02-25T09:09:24.909Z,19.87
2019-02-25T09:10:24.861Z,18.87
2019-02-25T09:11:24.851Z,18.86
2019-02-25T09:12:24.838Z,18.40
2019-02-25T09:13:24.834Z,18.61
2019-02-25T09:14:24.846Z,18.29
2019-02-25T09:15:24.826Z,18.28
2019-02-25T09:16:24.803Z,19.35
2019-02-25T09:17:24.803Z,18.77
2019-02-25T09:18:36.177Z,19.25
2019-02-25T09:19:24.793Z,19.25
2019-02-25T09:20:24.753Z,18.86
2019-02-25T09:21:31.673Z,19.48
2019-02-25T09:22:25.734Z,20.54
2019-02-25T09:23:24.730Z,21.27
2019-02-25T09:24:24.735Z,19.61
2019-02-25T09:25:24.714Z,19.23
2019-02-25T09:26:24.715Z,18.49
2019-02-25T09:27:24.719Z,18.33
2019-02-25T09:28:24.673Z,18.18
2019-02-25T09:29:24.686Z,18.06
2019-02-25T09:30:24.654Z,17.78
2019-02-25T09:31:24.641Z,17.54
2019-02-25T09:32:24.631Z,17.63
2019-02-25T09:33:24.620Z,17.76
2019-02-25T09:34:24.637Z,18.12
2019-02-25T09:35:24.600Z,17.99
2019-02-25T09:36:25.688Z,18.73
2019-02-25T09:37:24.593Z,18.95
2019-02-25T09:38:24.579Z,18.90
2019-02-25T09:39:24.611Z,18.52
2019-02-25T09:40:24.561Z,17.81
2019-02-25T09:41:29.829Z,18.18
2019-02-25T09:42:25.533Z,17.88
2019-02-25T09:43:24.526Z,18.46
2019-02-25T09:44:24.545Z,18.42
2019-02-25T09:45:24.505Z,18.61
2019-02-25T09:46:24.492Z,19.40
2019-02-25T09:47:24.486Z,18.40
2019-02-25T09:48:24.484Z,18.44
2019-02-25T09:49:24.492Z,17.35
2019-02-25T09:50:24.453Z,15.96
2019-02-25T09:51:24.445Z,15.09
2019-02-25T09:52:24.421Z,14.86
2019-02-25T09:53:24.421Z,13.55
2019-02-25T09:54:24.435Z,13.15
2019-02-25T09:55:24.390Z,13.00
2019-02-25T09:56:24.390Z,13.07
2019-02-25T09:57:24.372Z,13.06
2019-02-25T09:58:24.368Z,12.75
2019-02-25T09:59:24.374Z,12.69
2019-02-25T10:00:24.351Z,12.63
2019-02-25T10:01:24.335Z,12.67
2019-02-25T10:02:24.920Z,12.66
2019-02-25T10:03:24.320Z,12.45
2019-02-25T10:04:24.332Z,12.45
2019-02-25T10:05:24.296Z,12.30
2019-02-25T10:06:24.290Z,12.13
2019-02-25T10:07:24.272Z,12.05
2019-02-25T10:08:24.268Z,12.04
2019-02-25T10:09:29.824Z,12.15
2019-02-25T10:10:25.237Z,12.15
2019-02-25T10:11:24.238Z,12.11
2019-02-25T10:12:24.226Z,12.20
2019-02-25T10:13:24.206Z,12.24
2019-02-25T10:14:24.221Z,12.34
2019-02-25T10:15:24.188Z,12.39
2019-02-25T10:16:24.181Z,12.52
2019-02-25T10:17:24.240Z,12.46
2019-02-25T10:18:24.165Z,12.45
2019-02-25T10:19:24.175Z,12.48
2019-02-25T10:20:24.128Z,12.60
2019-02-25T10:21:24.124Z,12.67
2019-02-25T10:22:24.113Z,12.69
2019-02-25T10:23:24.100Z,12.67
2019-02-25T10:24:24.129Z,12.56
2019-02-25T10:25:24.085Z,12.42
2019-02-25T10:26:24.060Z,12.41
2019-02-25T10:27:24.063Z,12.48
2019-02-25T10:28:24.052Z,12.39
2019-02-25T10:29:24.060Z,12.41
2019-02-25T10:30:24.063Z,12.42
2019-02-25T10:31:24.016Z,12.46
2019-02-25T10:32:25.960Z,12.54
2019-02-25T10:33:23.996Z,12.70
2019-02-25T10:34:24.142Z,12.79
2019-02-25T10:35:24.923Z,12.78
2019-02-25T10:36:23.960Z,12.78
2019-02-25T10:37:23.952Z,12.79
2019-02-25T10:38:23.948Z,12.79
2019-02-25T10:39:23.929Z,12.78
2019-02-25T10:40:25.398Z,12.87
2019-02-25T10:41:25.565Z,12.88
2019-02-25T10:42:23.890Z,12.85
2019-02-25T10:43:25.554Z,12.88
2019-02-25T10:44:23.884Z,12.87
2019-02-25T10:45:23.886Z,12.85
2019-02-25T10:46:23.856Z,13.03
2019-02-25T10:47:23.860Z,12.92
2019-02-25T10:48:25.770Z,13.07
2019-02-25T10:49:24.594Z,12.99
2019-02-25T10:50:23.838Z,12.95
2019-02-25T10:51:23.854Z,12.93
2019-02-25T10:52:23.789Z,13.09
2019-02-25T10:53:23.779Z,13.18
2019-02-25T10:54:25.313Z,13.17
2019-02-25T10:55:23.783Z,13.20
2019-02-25T10:56:25.438Z,13.20
2019-02-25T10:57:24.570Z,13.20
2019-02-25T10:58:25.182Z,13.15
2019-02-25T10:59:23.726Z,13.15
2019-02-25T11:00:23.734Z,13.09
2019-02-25T11:01:24.530Z,13.12
2019-02-25T11:02:23.694Z,13.03
2019-02-25T11:03:23.681Z,12.97
2019-02-25T11:04:24.566Z,13.07
2019-02-25T11:05:25.437Z,13.15
2019-02-25T11:06:25.131Z,13.24
2019-02-25T11:07:23.634Z,13.37
2019-02-25T11:08:23.634Z,13.38
2019-02-25T11:09:23.621Z,13.44
2019-02-25T11:10:23.632Z,13.56
2019-02-25T11:11:25.436Z,13.51
2019-02-25T11:12:24.226Z,13.49
2019-02-25T11:13:25.405Z,13.54
2019-02-25T11:14:23.558Z,13.49
2019-02-25T11:15:23.574Z,13.43
2019-02-25T11:16:23.538Z,13.47
2019-02-25T11:17:24.439Z,13.44
2019-02-25T11:18:24.519Z,13.52
2019-02-25T11:19:24.908Z,13.58
2019-02-25T11:20:23.534Z,13.70
2019-02-25T11:21:23.493Z,13.62
2019-02-25T11:22:23.480Z,13.67
2019-02-25T11:23:23.470Z,13.70
2019-02-25T11:24:25.358Z,13.63
2019-02-25T11:25:24.154Z,13.59
2019-02-25T11:26:24.282Z,13.71
2019-02-25T11:27:23.426Z,13.71
2019-02-25T11:28:25.894Z,13.76
2019-02-25T11:29:23.408Z,13.88
2019-02-25T11:30:24.017Z,13.84
2019-02-25T11:31:25.145Z,13.83
2019-02-25T11:32:24.418Z,13.87
2019-02-25T11:33:25.308Z,13.81
2019-02-25T11:34:23.346Z,13.92
2019-02-25T11:35:23.376Z,14.02
2019-02-25T11:36:23.325Z,13.94
2019-02-25T11:37:24.630Z,13.87
2019-02-25T11:38:24.179Z,13.91
2019-02-25T11:39:25.173Z,13.95
2019-02-25T11:40:23.289Z,13.87
2019-02-25T11:41:23.300Z,13.87
2019-02-25T11:42:23.314Z,13.80
2019-02-25T11:43:23.249Z,13.74
2019-02-25T11:44:24.095Z,13.76
2019-02-25T11:45:23.249Z,13.88
2019-02-25T11:46:23.252Z,14.02
2019-02-25T11:47:23.208Z,13.89
2019-02-25T11:48:23.192Z,13.88
2019-02-25T11:49:23.195Z,13.80
2019-02-25T11:50:23.177Z,13.91
2019-02-25T11:51:23.191Z,13.98
2019-02-25T11:52:23.157Z,13.88
2019-02-25T11:53:23.154Z,13.96
2019-02-25T11:54:23.133Z,13.87
2019-02-25T11:55:23.125Z,13.89
2019-02-25T11:56:23.143Z,13.91
2019-02-25T11:57:23.103Z,13.81
2019-02-25T11:58:23.099Z,13.91
2019-02-25T11:59:23.090Z,14.02
2019-02-25T12:00:23.103Z,14.12
2019-02-25T12:01:23.080Z,14.06
2019-02-25T12:02:25.939Z,13.96
2019-02-25T12:03:23.046Z,14.02
2019-02-25T12:04:23.029Z,14.04
2019-02-25T12:05:23.016Z,13.99
2019-02-25T12:06:23.041Z,14.16
2019-02-25T12:07:22.993Z,14.20
2019-02-25T12:08:22.994Z,14.27
2019-02-25T12:09:22.977Z,14.20
2019-02-25T12:10:22.957Z,14.28
2019-02-25T12:11:22.980Z,14.25
2019-02-25T12:12:22.968Z,14.35
2019-02-25T12:13:22.929Z,14.29
2019-02-25T12:14:22.909Z,14.32
2019-02-25T12:15:22.914Z,14.34
2019-02-25T12:16:22.923Z,14.38
2019-02-25T12:17:22.874Z,14.28
2019-02-25T12:18:22.869Z,14.25
2019-02-25T12:19:22.860Z,14.27
2019-02-25T12:20:22.841Z,14.29
2019-02-25T12:21:22.861Z,14.37
2019-02-25T12:22:22.825Z,14.28
2019-02-25T12:23:22.823Z,14.46
2019-02-25T12:24:22.812Z,14.42
2019-02-25T12:25:22.799Z,14.54
2019-02-25T12:26:22.821Z,14.57
2019-02-25T12:27:22.785Z,14.61
2019-02-25T12:28:22.771Z,14.67
2019-02-25T12:29:22.753Z,14.56
2019-02-25T12:30:22.752Z,14.60
2019-02-25T12:31:22.769Z,14.56
2019-02-25T12:32:22.720Z,14.68
2019-02-25T12:33:22.711Z,14.53
2019-02-25T12:34:22.703Z,14.28
2019-02-25T12:35:22.694Z,14.44
2019-02-25T12:36:22.705Z,14.42
2019-02-25T12:37:22.669Z,14.50
2019-02-25T12:38:22.657Z,14.39
2019-02-25T12:39:22.650Z,14.56
2019-02-25T12:40:22.631Z,14.69
2019-02-25T12:41:22.655Z,14.74
2019-02-25T12:42:22.622Z,14.65
2019-02-25T12:43:22.604Z,14.74
2019-02-25T12:44:22.601Z,14.67
2019-02-25T12:45:22.598Z,14.81
2019-02-25T12:46:22.617Z,14.91
2019-02-25T12:47:22.582Z,15.01
2019-02-25T12:48:22.805Z,14.90
2019-02-25T12:49:22.549Z,14.86
2019-02-25T12:50:22.531Z,14.67
2019-02-25T12:51:22.547Z,14.60
2019-02-25T12:52:22.511Z,14.69
2019-02-25T12:53:22.540Z,14.84
2019-02-25T12:54:22.489Z,14.84
2019-02-25T12:55:22.490Z,14.90
2019-02-25T12:56:22.508Z,14.94
2019-02-25T12:57:22.465Z,15.01
2019-02-25T12:58:22.460Z,14.94
2019-02-25T12:59:22.451Z,15.05
2019-02-25T13:00:22.430Z,14.95
2019-02-25T13:01:22.459Z,15.05
2019-02-25T13:02:22.399Z,15.15
2019-02-25T13:03:22.418Z,15.19
2019-02-25T13:04:22.387Z,15.24
2019-02-25T13:05:22.378Z,15.39
2019-02-25T13:06:22.415Z,15.30
2019-02-25T13:07:22.362Z,15.20